Time;durP1;ratioP1;P1;durP2;ratioP2;P2;SDS_P1;SDS_P2;PMS_P1;PMS_P2;Temp;Humidity;BMP_temperature;BMP_pressure;BME280_temperature;BME280_humidity;BME280_pressure;Samples;Min_cycle;Max_cycle;Signal;HPM_P1;HPM_P2
2023/02/14 00:01:49;;;;;;;17.60;11.55;;;;;;;4.48;93.74;103499.50;5037186;28;20110;-75
2023/02/14 00:04:16;;;;;;;17.35;11.38;;;;;;;4.47;93.72;103502.06;5036161;28;20048;-75
2023/02/14 00:06:42;;;;;;;17.02;10.90;;;;;;;4.43;93.77;103498.50;5036809;28;20044;-75
2023/02/14 00:09:11;;;;;;;16.05;10.95;;;;;;;4.41;93.71;103500.16;5036482;28;20394;-75
2023/02/14 00:11:37;;;;;;;;;;;;;;;4.38;93.78;103495.78;5043279;28;20051;-75
2023/02/14 00:16:47;;;;;;;15.93;10.90;;;;;;;4.35;93.67;103498.28;5039794;28;20071;-75
2023/02/14 00:19:14;;;;;;;16.75;10.77;;;;;;;4.33;93.76;103489.59;5036386;28;20052;-75
2023/02/14 00:21:41;;;;;;;15.23;10.50;;;;;;;4.33;93.78;103489.59;5033548;28;20037;-75
2023/02/14 00:24:09;;;;;;;12.75;10.27;;;;;;;4.32;93.87;103486.94;5038935;28;20376;-75
2023/02/14 00:26:37;;;;;;;15.25;10.85;;;;;;;4.33;94.16;103478.31;5042372;28;20099;-75
2023/02/14 00:29:03;;;;;;;12.80;9.93;;;;;;;4.33;94.16;103479.22;5042665;28;20095;-75
2023/02/14 00:31:29;;;;;;;13.02;9.98;;;;;;;4.34;94.31;103469.69;5026203;28;20033;-75
2023/02/14 00:33:54;;;;;;;13.93;9.93;;;;;;;4.34;94.29;103475.75;5025076;28;20071;-75
2023/02/14 00:36:20;;;;;;;14.65;9.57;;;;;;;4.34;94.39;103470.56;5041939;28;20243;-75
2023/02/14 00:38:45;;;;;;;16.42;10.85;;;;;;;4.33;94.41;103473.13;5049373;28;20264;-75
2023/02/14 00:41:18;;;;;;;17.10;10.07;;;;;;;4.31;94.44;103467.00;5042750;28;20046;-75
2023/02/14 00:43:47;;;;;;;14.90;9.93;;;;;;;4.30;94.40;103467.88;5042722;28;20064;-75
2023/02/14 00:46:14;;;;;;;15.30;10.23;;;;;;;4.28;94.26;103465.22;5026026;28;20029;-75
2023/02/14 00:48:40;;;;;;;12.50;9.40;;;;;;;4.26;94.23;103463.41;5032069;28;20405;-75
2023/02/14 00:51:05;;;;;;;14.95;9.70;;;;;;;4.22;94.00;103459.84;5042223;28;20046;-75
2023/02/14 00:53:31;;;;;;;11.73;9.23;;;;;;;4.18;94.14;103458.91;5041486;28;20037;-75
2023/02/14 00:55:56;;;;;;;13.90;9.88;;;;;;;4.18;94.21;103463.19;5049325;28;20328;-75
2023/02/14 00:58:22;;;;;;;11.18;9.18;;;;;;;4.15;94.22;103456.22;5043877;28;20045;-75
2023/02/14 01:00:47;;;;;;;12.82;9.27;;;;;;;4.14;94.28;103458.78;5044535;28;20048;-75
2023/02/14 01:03:12;;;;;;;15.80;9.95;;;;;;;4.13;94.23;103462.19;5042200;28;20136;-75
2023/02/14 01:05:38;;;;;;;12.57;9.45;;;;;;;4.12;94.25;103452.66;5042636;28;20252;-75
2023/02/14 01:08:04;;;;;;;12.90;9.48;;;;;;;4.11;94.24;103453.50;5028186;28;20041;-75
2023/02/14 01:10:29;;;;;;;14.43;9.75;;;;;;;4.09;94.34;103448.25;5041513;28;20052;-75
2023/02/14 01:12:54;;;;;;;14.93;10.27;;;;;;;4.08;94.35;103446.50;5041745;28;20106;-75
2023/02/14 01:15:20;;;;;;;14.02;9.60;;;;;;;4.07;94.43;103444.75;5044216;28;20060;-75
2023/02/14 01:17:45;;;;;;;12.82;8.88;;;;;;;4.04;94.32;103450.72;5042646;28;20118;-75
2023/02/14 01:20:11;;;;;;;15.10;10.05;;;;;;;4.03;94.28;103443.78;5041726;28;20079;-75
2023/02/14 01:22:36;;;;;;;13.88;9.32;;;;;;;4.00;94.29;103448.91;5041816;28;20041;-75
2023/02/14 01:25:02;;;;;;;14.35;9.88;;;;;;;3.98;94.17;103440.19;5045531;28;20029;-75
2023/02/14 01:27:28;;;;;;;14.68;10.48;;;;;;;3.96;94.01;103447.03;5041024;28;20095;-75
2023/02/14 01:29:53;;;;;;;12.90;9.50;;;;;;;3.92;94.05;103442.59;5041732;28;20033;-75
2023/02/14 01:32:18;;;;;;;14.60;10.10;;;;;;;3.90;93.94;103440.81;5027782;28;20029;-75
2023/02/14 01:34:44;;;;;;;14.75;10.32;;;;;;;3.85;93.75;103438.94;5043385;28;20033;-75
2023/02/14 01:37:09;;;;;;;13.85;9.82;;;;;;;3.83;93.95;103443.22;5041393;28;20045;-75
2023/02/14 01:39:35;;;;;;;11.68;9.10;;;;;;;3.82;93.82;103440.56;5040921;28;20110;-75
2023/02/14 01:42:00;;;;;;;13.15;8.85;;;;;;;3.82;93.98;103440.56;5023735;28;20371;-75
2023/02/14 01:44:25;;;;;;;13.57;9.15;;;;;;;3.80;94.01;103442.25;5043750;28;20447;-75
2023/02/14 01:46:51;;;;;;;12.68;8.77;;;;;;;3.79;94.06;103441.38;5044454;28;20028;-75
2023/02/14 01:49:26;;;;;;;8.10;7.30;;;;;;;3.81;94.50;103441.41;5040721;28;20040;-75
2023/02/14 01:51:58;;;;;;;11.00;8.18;;;;;;;3.81;94.40;103441.41;5041079;28;20026;-75
2023/02/14 01:54:26;;;;;;;10.18;7.85;;;;;;;3.81;94.39;103441.41;5048675;28;20382;-75
2023/02/14 01:56:57;;;;;;;10.02;8.55;;;;;;;3.81;94.45;103437.09;5043790;28;20108;-75
2023/02/14 01:59:30;;;;;;;10.65;8.75;;;;;;;3.81;94.54;103441.41;5040605;28;20071;-75
2023/02/14 02:05:09;;;;;;;10.52;8.00;;;;;;;3.79;94.50;103440.50;5044207;28;20044;-72
2023/02/14 02:07:35;;;;;;;12.38;8.95;;;;;;;3.78;94.58;103446.50;5049416;28;20060;-72
2023/02/14 02:10:03;;;;;;;10.75;8.25;;;;;;;3.78;94.67;103446.50;5024548;28;20057;-72
2023/02/14 02:12:29;;;;;;;11.82;8.95;;;;;;;3.76;94.59;103441.28;5043959;28;20045;-72
2023/02/14 02:14:57;;;;;;;14.00;9.43;;;;;;;3.74;94.75;103427.38;5049303;28;20320;-72
2023/02/14 02:17:25;;;;;;;10.80;7.95;;;;;;;3.75;94.77;103436.06;5047120;28;20048;-72
2023/02/14 02:20:18;;;;;;;11.75;8.65;;;;;;;3.74;94.74;103447.25;5050503;28;20029;-72
2023/02/14 02:23:02;;;;;;;11.23;8.50;;;;;;;3.72;94.84;103428.19;5050606;28;20037;-72
2023/02/14 02:26:05;;;;;;;10.40;7.82;;;;;;;3.71;94.89;103434.19;5052968;28;20364;-72
2023/02/14 02:29:08;;;;;;;10.68;7.97;;;;;;;3.70;94.94;103433.31;5044898;28;20289;-72
2023/02/14 02:32:04;;;;;;;11.35;8.30;;;;;;;3.68;94.91;103429.81;4965958;28;20490;-72
2023/02/14 02:34:53;;;;;;;8.75;7.28;;;;;;;3.66;94.86;103436.66;4964002;28;20058;-72
2023/02/14 02:37:31;;;;;;;11.10;8.13;;;;;;;3.65;94.97;103433.19;5020876;28;20199;-72
2023/02/14 02:40:12;;;;;;;11.63;8.63;;;;;;;3.62;94.98;103430.50;5026953;28;20044;-72
2023/02/14 02:43:15;;;;;;;13.30;8.65;;;;;;;3.61;94.97;103427.88;5045677;28;20026;-72
2023/02/14 02:48:39;;;;;;;13.52;9.35;;;;;;;3.56;94.84;103429.44;5050243;28;20114;-72
2023/02/14 02:54:22;;;;;;;11.75;8.50;;;;;;;3.52;94.98;103419.81;5044555;28;20040;-72
2023/02/14 02:56:56;;;;;;;12.98;7.55;;;;;;;3.50;94.93;103424.97;5045659;28;20049;-72
2023/02/14 02:59:21;;;;;;;11.45;8.13;;;;;;;3.50;95.04;103417.19;5027110;28;20037;-72
2023/02/14 03:01:53;;;;;;;11.68;7.80;;;;;;;3.50;95.13;103413.72;5045242;28;20025;-72
2023/02/14 03:07:33;;;;;;;11.90;8.15;;;;;;;3.51;95.47;103410.28;5044973;28;20045;-72
2023/02/14 03:09:54;;;;;;;13.15;8.23;;;;;;;3.52;95.65;103407.75;5044294;28;20037;-72
2023/02/14 03:12:42;;;;;;;11.90;8.57;;;;;;;3.52;95.65;103401.69;5045737;28;20045;-72
2023/02/14 03:15:51;;;;;;;10.27;8.38;;;;;;;3.52;95.65;103407.75;5038704;28;20083;-72
2023/02/14 03:21:33;;;;;;;12.35;8.70;;;;;;;3.54;95.91;103424.22;5044384;28;20060;-72
2023/02/14 03:24:13;;;;;;;10.98;8.25;;;;;;;3.52;95.99;103423.28;5046896;28;20068;-72
2023/02/14 03:26:50;;;;;;;9.90;8.13;;;;;;;3.51;96.08;103418.97;5046941;28;20036;-72
2023/02/14 03:29:29;;;;;;;9.82;7.97;;;;;;;3.51;96.02;103418.06;5039833;28;20355;-72
2023/02/14 03:31:58;;;;;;;11.25;8.32;;;;;;;3.46;95.86;103415.34;5044055;28;20056;-72
2023/02/14 03:34:34;;;;;;;12.10;8.30;;;;;;;3.44;95.95;103420.47;5042781;28;20037;-72
2023/02/14 03:37:07;;;;;;;10.35;8.32;;;;;;;3.43;95.84;103415.25;5041749;28;20225;-72
2023/02/14 03:39:46;;;;;;;11.77;8.23;;;;;;;3.40;95.87;103416.03;5043647;28;20025;-72
2023/02/14 03:42:21;;;;;;;;;;;;;;;3.38;95.83;103416.81;5044289;28;20037;-72
2023/02/14 03:44:50;;;;;;;10.88;8.32;;;;;;;3.35;95.80;103408.97;5044425;28;19916;-72
2023/02/14 03:47:20;;;;;;;10.95;8.43;;;;;;;3.30;95.69;103414.00;5045421;28;20040;-72
2023/02/14 03:50:00;;;;;;;13.18;8.75;;;;;;;3.27;95.69;103411.28;5045623;28;20130;-72
2023/02/14 03:52:29;;;;;;;9.80;7.97;;;;;;;3.26;95.74;103407.84;5043122;28;20033;-72
2023/02/14 03:54:56;;;;;;;11.93;8.10;;;;;;;3.26;95.84;103404.38;5043844;28;20330;-72
2023/02/14 03:57:34;;;;;;;11.05;8.18;;;;;;;3.25;95.73;103405.19;5045135;28;20280;-72
2023/02/14 04:00:00;;;;;;;12.63;8.68;;;;;;;3.25;95.90;103405.19;5043455;28;20405;-73
2023/02/14 04:02:39;;;;;;;13.05;8.30;;;;;;;3.25;95.99;103402.59;5037725;28;20048;-73
2023/02/14 04:05:15;;;;;;;12.00;8.65;;;;;;;3.24;95.99;103411.22;5034635;28;20037;-73
2023/02/14 04:07:52;;;;;;;11.18;8.35;;;;;;;3.23;96.08;103393.91;5040934;28;20037;-73
2023/02/14 04:10:19;;;;;;;12.88;9.02;;;;;;;3.23;96.00;103396.50;5037270;28;20304;-73
2023/02/14 04:12:45;;;;;;;10.75;8.65;;;;;;;3.21;96.09;103399.03;5038313;28;20060;-73
2023/02/14 04:15:12;;;;;;;12.60;8.75;;;;;;;3.22;96.25;103397.31;5038410;28;20029;-73
2023/02/14 04:20:22;;;;;;;12.52;9.18;;;;;;;3.22;96.40;103399.91;5039076;28;20044;-73
2023/02/14 04:22:47;;;;;;;14.02;9.30;;;;;;;3.21;96.38;103401.63;5038558;28;20249;-73
2023/02/14 04:25:13;;;;;;;11.90;8.73;;;;;;;3.21;96.52;103395.56;5038039;28;20029;-73
2023/02/14 04:27:39;;;;;;;10.57;8.80;;;;;;;3.19;96.43;103403.28;5039000;28;20416;-73
2023/02/14 04:30:05;;;;;;;12.48;7.97;;;;;;;3.17;96.39;103399.78;5037825;28;20033;-73
2023/02/14 04:32:31;;;;;;;14.60;9.85;;;;;;;3.16;96.53;103394.56;5036955;28;20358;-73
2023/02/14 04:34:56;;;;;;;13.23;9.23;;;;;;;3.14;96.50;103394.50;5037964;28;20072;-73
2023/02/14 04:37:21;;;;;;;12.55;9.07;;;;;;;3.13;96.50;103391.84;5037284;28;20053;-73
2023/02/14 04:39:47;;;;;;;12.82;9.30;;;;;;;3.12;96.51;103403.06;5041374;28;20038;-73
2023/02/14 04:42:12;;;;;;;11.73;9.05;;;;;;;3.10;96.67;103395.25;5037851;28;20041;-73
2023/02/14 04:44:38;;;;;;;11.13;8.93;;;;;;;3.10;96.65;103395.25;5037154;28;20087;-73
2023/02/14 04:47:04;;;;;;;10.77;8.35;;;;;;;3.09;96.64;103396.06;5037999;28;20099;-73
2023/02/14 04:49:30;;;;;;;11.70;8.65;;;;;;;3.10;96.63;103397.84;5043438;28;20064;-73
2023/02/14 04:51:56;;;;;;;11.30;8.65;;;;;;;3.08;96.67;103400.38;5038198;28;20064;-73
2023/02/14 04:54:21;;;;;;;11.30;7.88;;;;;;;3.08;96.75;103391.72;5039282;28;20060;-73
2023/02/14 04:56:47;;;;;;;10.27;8.25;;;;;;;3.07;96.87;103398.63;5039862;28;20041;-73
2023/02/14 04:59:13;;;;;;;10.73;7.65;;;;;;;3.06;96.79;103399.44;5038110;28;20244;-73
2023/02/14 05:01:39;;;;;;;10.32;8.00;;;;;;;3.06;96.80;103404.63;5037306;28;20044;-73
2023/02/14 05:04:05;;;;;;;8.48;7.63;;;;;;;3.05;96.83;103399.38;5039767;28;20049;-73
2023/02/14 05:06:31;;;;;;;9.80;7.65;;;;;;;3.05;96.87;103404.56;5041393;28;20083;-73
2023/02/14 05:08:57;;;;;;;11.80;8.30;;;;;;;3.04;96.81;103395.94;5037784;28;20037;-73
2023/02/14 05:11:23;;;;;;;8.43;7.35;;;;;;;3.04;96.72;103402.84;5043539;28;20116;-73
2023/02/14 05:13:48;;;;;;;8.32;7.00;;;;;;;3.02;96.88;103400.19;5043921;28;20061;-73
2023/02/14 05:16:13;;;;;;;8.55;7.20;;;;;;;3.00;96.88;103404.44;5041468;28;20083;-73
2023/02/14 05:18:39;;;;;;;9.95;7.82;;;;;;;2.99;96.89;103399.22;5044829;28;20041;-73
2023/02/14 05:21:05;;;;;;;8.32;7.50;;;;;;;2.97;96.84;103395.69;5047443;28;20033;-73
2023/02/14 05:23:30;;;;;;;10.15;7.63;;;;;;;2.95;96.90;103393.06;5040861;28;20341;-73
2023/02/14 05:25:55;;;;;;;11.23;7.88;;;;;;;2.95;96.98;103397.31;5041000;28;20037;-73
2023/02/14 05:28:21;;;;;;;8.50;6.72;;;;;;;2.93;97.13;103394.72;5041959;28;20100;-73
2023/02/14 05:30:46;;;;;;;8.80;7.72;;;;;;;2.93;97.06;103396.41;5049711;28;20052;-73
2023/02/14 05:33:12;;;;;;;9.93;8.00;;;;;;;2.92;96.96;103395.53;5040797;28;20283;-73
2023/02/14 05:35:37;;;;;;;7.88;6.95;;;;;;;2.91;97.13;103390.31;5045863;28;20045;-73
2023/02/14 05:38:03;;;;;;;12.18;7.97;;;;;;;2.90;96.99;103388.56;5040525;28;20376;-73
2023/02/14 05:40:28;;;;;;;9.25;7.70;;;;;;;2.88;97.11;103389.38;5040155;28;20341;-73
2023/02/14 05:42:54;;;;;;;9.80;8.05;;;;;;;2.88;97.15;103393.69;5041364;28;20049;-73
2023/02/14 05:45:21;;;;;;;9.65;7.60;;;;;;;2.88;97.22;103391.09;5045016;28;20033;-73
2023/02/14 05:47:47;;;;;;;10.52;7.50;;;;;;;2.88;97.25;103388.50;5042660;28;20029;-73
2023/02/14 05:50:13;;;;;;;12.27;8.50;;;;;;;2.87;97.14;103385.06;5040633;28;20073;-73
2023/02/14 05:52:38;;;;;;;10.30;8.25;;;;;;;2.87;97.20;103389.31;5043332;28;20321;-73
2023/02/14 05:55:04;;;;;;;9.38;7.97;;;;;;;2.85;97.22;103385.81;5040836;28;20286;-73
2023/02/14 05:57:29;;;;;;;10.63;8.18;;;;;;;2.85;97.22;103385.81;5040622;28;20112;-73
2023/02/14 05:59:55;;;;;;;8.73;7.53;;;;;;;2.83;97.28;103378.00;5045307;28;20036;-73
2023/02/14 06:02:21;;;;;;;10.00;7.50;;;;;;;2.82;97.38;103386.59;5047711;28;20437;-73
2023/02/14 06:04:46;;;;;;;9.38;7.60;;;;;;;2.82;97.46;103389.19;5040428;28;20029;-73
2023/02/14 06:07:11;;;;;;;8.38;7.03;;;;;;;2.82;97.41;103377.94;5047773;28;20087;-73
2023/02/14 06:09:37;;;;;;;9.73;7.22;;;;;;;2.82;97.45;103375.34;5039893;28;20091;-73
2023/02/14 06:12:03;;;;;;;9.85;7.70;;;;;;;2.80;97.51;103375.34;5040039;28;20073;-73
2023/02/14 06:14:28;;;;;;;10.00;7.15;;;;;;;2.79;97.35;103389.09;5011320;28;20281;-73
2023/02/14 06:16:53;;;;;;;6.82;6.13;;;;;;;2.79;97.42;103376.16;5023449;28;20438;-73
2023/02/14 06:19:19;;;;;;;10.23;7.30;;;;;;;2.79;97.58;103383.91;5021517;28;20084;-73
2023/02/14 06:21:45;;;;;;;7.35;6.63;;;;;;;2.78;97.53;103379.53;5022354;28;20037;-73
2023/02/14 06:24:11;;;;;;;9.75;7.20;;;;;;;2.78;97.53;103381.25;5045206;28;20045;-73
2023/02/14 06:26:36;;;;;;;7.90;6.53;;;;;;;2.78;97.53;103383.84;5026742;28;20057;-73
2023/02/14 06:29:02;;;;;;;9.02;7.15;;;;;;;2.76;97.57;103383.81;5043073;28;20036;-73
2023/02/14 06:31:28;;;;;;;8.32;6.55;;;;;;;2.76;97.53;103386.38;5043768;28;20060;-73
2023/02/14 06:33:54;;;;;;;9.10;6.93;;;;;;;2.76;97.70;103388.09;5039909;28;20330;-73
2023/02/14 06:36:20;;;;;;;10.27;7.65;;;;;;;2.75;97.62;103391.50;5039527;28;20057;-73
2023/02/14 06:38:46;;;;;;;10.25;7.38;;;;;;;2.73;97.69;103386.31;5039879;28;20033;-73
2023/02/14 06:41:13;;;;;;;10.98;7.70;;;;;;;2.72;97.81;103394.88;5041216;28;20037;-73
2023/02/14 06:43:39;;;;;;;9.27;7.65;;;;;;;2.70;97.87;103388.78;5042517;28;20048;-73
2023/02/14 06:46:05;;;;;;;9.93;8.10;;;;;;;2.70;97.77;103381.03;5043252;28;20033;-73
2023/02/14 06:48:30;;;;;;;10.52;8.15;;;;;;;2.70;97.84;103391.38;5035141;28;20091;-73
2023/02/14 06:50:55;;;;;;;9.13;7.57;;;;;;;2.70;97.87;103386.19;5033192;28;20045;-73
2023/02/14 06:53:21;;;;;;;10.32;7.80;;;;;;;2.69;97.91;103389.59;5022649;28;20177;-73
2023/02/14 06:55:46;;;;;;;10.23;8.32;;;;;;;2.68;97.92;103380.97;5039217;28;20083;-73
2023/02/14 06:58:12;;;;;;;12.27;9.00;;;;;;;2.69;97.96;103387.00;5040571;28;20040;-73
2023/02/14 07:00:38;;;;;;;10.63;8.48;;;;;;;2.67;98.00;103380.91;5045401;28;20256;-73
2023/02/14 07:03:04;;;;;;;11.55;8.13;;;;;;;2.67;98.05;103388.69;5044029;28;20292;-73
2023/02/14 07:05:30;;;;;;;10.50;7.97;;;;;;;2.67;97.86;103389.59;5042540;28;20130;-73
2023/02/14 07:07:56;;;;;;;11.65;8.23;;;;;;;2.67;98.09;103387.00;5038760;28;20032;-73
2023/02/14 07:10:21;;;;;;;11.82;8.77;;;;;;;2.67;98.01;103384.41;5037975;28;20037;-73
2023/02/14 07:12:47;;;;;;;11.98;7.88;;;;;;;2.67;98.25;103394.75;5038506;28;20045;-73
2023/02/14 07:15:13;;;;;;;12.15;8.65;;;;;;;2.67;98.18;103393.84;5038632;28;20049;-73
2023/02/14 07:17:38;;;;;;;10.85;7.90;;;;;;;2.66;98.12;103398.16;5038037;28;20033;-73
2023/02/14 07:20:05;;;;;;;12.10;8.25;;;;;;;2.65;97.98;103398.97;5038476;28;20283;-73
2023/02/14 07:22:31;;;;;;;9.85;8.18;;;;;;;2.65;98.20;103398.09;5038242;28;20064;-73
2023/02/14 07:24:57;;;;;;;11.50;7.90;;;;;;;2.64;98.24;103399.81;5038663;28;20041;-73
2023/02/14 07:27:22;;;;;;;10.82;8.32;;;;;;;2.62;98.23;103398.00;5037595;28;20057;-73
2023/02/14 07:29:47;;;;;;;9.40;7.88;;;;;;;2.60;98.26;103405.72;5038299;28;20217;-73
2023/02/14 07:32:13;;;;;;;10.38;7.85;;;;;;;2.60;98.33;103402.25;5033931;28;20041;-73
2023/02/14 07:34:38;;;;;;;12.07;8.50;;;;;;;2.59;98.39;103403.97;5037565;28;20064;-73
2023/02/14 07:37:03;;;;;;;11.82;8.32;;;;;;;2.59;98.45;103400.50;5037848;28;20044;-73
2023/02/14 07:39:29;;;;;;;10.32;8.18;;;;;;;2.59;98.35;103410.84;5037351;28;20112;-73
2023/02/14 07:41:54;;;;;;;10.18;7.90;;;;;;;2.57;98.40;103399.56;5040414;28;20033;-73
2023/02/14 07:44:19;;;;;;;9.73;7.70;;;;;;;2.56;98.52;103400.38;5038885;28;20425;-73
2023/02/14 07:46:45;;;;;;;10.32;8.30;;;;;;;2.56;98.33;103402.97;5038482;28;20060;-73
2023/02/14 07:49:10;;;;;;;12.45;8.40;;;;;;;2.54;98.49;103402.91;5037907;28;20049;-73
2023/02/14 07:51:36;;;;;;;11.20;8.50;;;;;;;2.55;98.32;103401.19;5037192;28;20288;-73
2023/02/14 07:54:01;;;;;;;11.48;8.82;;;;;;;2.55;98.55;103403.78;5030106;28;20139;-73
2023/02/14 07:56:27;;;;;;;11.98;8.63;;;;;;;2.55;98.68;103401.19;5036933;28;20394;-73
2023/02/14 07:58:52;;;;;;;14.82;9.35;;;;;;;2.57;98.74;103399.56;5037920;28;20055;-73
2023/02/14 08:01:19;;;;;;;11.77;8.95;;;;;;;2.56;98.61;103401.25;5036368;28;20061;-73
2023/02/14 08:03:48;;;;;;;13.75;9.52;;;;;;;2.59;98.75;103403.09;5028429;28;20041;-73
2023/02/14 08:06:14;;;;;;;15.57;10.25;;;;;;;2.61;98.70;103404.00;5031526;28;20041;-73
2023/02/14 08:08:40;;;;;;;13.00;10.25;;;;;;;2.63;99.12;103397.19;5032328;28;20071;-73
2023/02/14 08:11:05;;;;;;;16.50;10.80;;;;;;;2.65;98.87;103400.69;5033971;28;20057;-73
2023/02/14 08:13:30;;;;;;;17.25;11.57;;;;;;;2.68;98.92;103400.81;5033430;28;20118;-73
2023/02/14 08:16:06;;;;;;;19.35;12.13;;;;;;;2.69;99.05;103394.78;5033603;28;20025;-73
2023/02/14 08:18:40;;;;;;;22.13;12.77;;;;;;;2.72;99.18;103391.44;5033863;28;20041;-73
2023/02/14 08:21:08;;;;;;;19.67;12.63;;;;;;;2.75;99.18;103397.59;5034785;28;20348;-73
2023/02/14 08:23:34;;;;;;;22.35;13.05;;;;;;;2.77;99.38;103398.50;5033668;28;20025;-73
2023/02/14 08:25:59;;;;;;;18.77;12.13;;;;;;;2.79;99.50;103393.41;5034677;28;20044;-73
2023/02/14 08:28:25;;;;;;;22.92;13.65;;;;;;;2.82;99.60;103398.66;5034305;28;20396;-73
2023/02/14 08:30:51;;;;;;;21.73;12.52;;;;;;;2.84;99.77;103395.28;5036712;28;20033;-74
2023/02/14 08:33:17;;;;;;;22.02;12.40;;;;;;;2.87;99.78;103403.16;5036953;28;20045;-73
2023/02/14 08:35:42;;;;;;;21.90;12.82;;;;;;;2.90;100.00;103401.50;5037166;28;20111;-73
2023/02/14 08:38:09;;;;;;;20.50;13.90;;;;;;;2.94;100.00;103395.59;4979474;28;20065;-73
2023/02/14 08:40:35;;;;;;;25.35;14.90;;;;;;;2.98;100.00;103400.03;4978129;28;20030;-73
2023/02/14 08:43:02;;;;;;;25.80;15.15;;;;;;;3.01;100.00;103397.53;4978355;28;20294;-73
2023/02/14 08:45:28;;;;;;;24.58;14.45;;;;;;;3.05;100.00;103391.63;4978401;28;20479;-73
2023/02/14 08:47:53;;;;;;;24.40;14.57;;;;;;;3.09;100.00;103396.06;4980134;28;20045;-73
2023/02/14 08:50:18;;;;;;;23.90;14.07;;;;;;;3.12;100.00;103393.56;4980204;28;20223;-73
2023/02/14 08:52:44;;;;;;;25.67;14.32;;;;;;;3.15;100.00;103391.09;4980661;28;20038;-73
2023/02/14 08:55:12;;;;;;;24.42;15.32;;;;;;;3.19;100.00;103398.13;4982567;28;20113;-73
2023/02/14 08:57:38;;;;;;;26.98;15.20;;;;;;;3.23;100.00;103397.38;4982133;28;20191;-73
2023/02/14 09:00:11;;;;;;;25.65;14.93;;;;;;;3.26;100.00;103388.84;4982344;28;20107;-73
2023/02/14 09:02:36;;;;;;;29.75;17.35;;;;;;;3.31;100.00;103391.53;4974661;28;20034;-73
2023/02/14 09:05:02;;;;;;;30.45;17.35;;;;;;;3.33;100.00;103393.38;4980654;28;20326;-73
2023/02/14 09:07:28;;;;;;;47.72;23.38;;;;;;;3.38;100.00;103396.09;4981391;28;20039;-73
2023/02/14 09:09:53;;;;;;;44.92;23.77;;;;;;;3.41;100.00;103388.41;4981509;28;20039;-73
2023/02/14 09:12:18;;;;;;;61.97;32.55;;;;;;;3.45;100.00;103388.53;4980539;28;20046;-73
2023/02/14 09:14:44;;;;;;;56.65;28.10;;;;;;;3.48;100.00;103392.06;4981081;28;20070;-73
2023/02/14 09:17:14;;;;;;;39.13;22.48;;;;;;;3.52;100.00;103386.16;4981306;28;20070;-73
2023/02/14 09:19:39;;;;;;;56.78;31.13;;;;;;;3.55;100.00;103386.25;4981249;28;20045;-73
2023/02/14 09:22:07;;;;;;;53.78;27.63;;;;;;;3.59;100.00;103382.91;4981673;28;20034;-73
2023/02/14 09:24:34;;;;;;;65.95;33.25;;;;;;;3.63;100.00;103388.19;4980982;28;20051;-73
2023/02/14 09:27:00;;;;;;;60.25;30.27;;;;;;;3.67;100.00;103385.69;4980866;28;20030;-73
2023/02/14 09:29:27;;;;;;;72.80;37.30;;;;;;;3.71;100.00;103388.44;4994551;28;20050;-73
2023/02/14 09:31:58;;;;;;;73.03;37.90;;;;;;;3.77;100.00;103388.59;4980084;28;20372;-73
2023/02/14 09:37:10;;;;;;;69.00;35.08;;;;;;;3.86;100.00;103393.19;4980920;28;20045;-73
2023/02/14 09:39:36;;;;;;;77.97;39.70;;;;;;;3.91;100.00;103386.41;4981653;28;20230;-73
2023/02/14 09:42:17;;;;;;;82.72;40.97;;;;;;;3.96;100.00;103387.38;4981098;28;20046;-73
2023/02/14 09:44:56;;;;;;;92.07;42.90;;;;;;;4.02;100.00;103384.09;4983631;28;20151;-73
2023/02/14 09:47:49;;;;;;;79.20;40.28;;;;;;;4.09;100.00;103382.53;4979866;28;20043;-73
2023/02/14 09:50:35;;;;;;;82.78;43.10;;;;;;;4.15;100.00;103381.00;4980068;28;20038;-73
2023/02/14 09:53:07;;;;;;;85.70;43.72;;;;;;;4.20;100.00;103379.41;4987508;28;20038;-73
2023/02/14 09:55:52;;;;;;;87.88;43.15;;;;;;;4.28;100.00;103386.53;4985194;28;20043;-73
2023/02/14 09:58:27;;;;;;;89.93;44.95;;;;;;;4.32;100.00;103385.75;4985421;28;20035;-73
2023/02/14 10:01:11;;;;;;;91.25;41.75;;;;;;;4.35;100.00;103381.53;4982000;28;20081;-73
2023/02/14 10:03:49;;;;;;;86.40;42.50;;;;;;;4.40;100.00;103381.63;4975964;28;20322;-73
2023/02/14 10:06:37;;;;;;;85.72;39.88;;;;;;;4.44;100.00;103388.69;4984191;28;20030;-73
2023/02/14 10:09:11;;;;;;;80.47;40.90;;;;;;;4.50;100.00;103382.75;4982697;28;20114;-73
2023/02/14 10:11:39;;;;;;;73.55;37.53;;;;;;;4.51;100.00;103385.41;4981005;28;20039;-73
2023/02/14 10:14:13;;;;;;;77.07;40.05;;;;;;;4.55;100.00;103384.63;4981745;28;20042;-73
2023/02/14 10:16:48;;;;;;;80.57;38.30;;;;;;;4.60;100.00;103382.13;4987643;28;20038;-73
2023/02/14 10:19:26;;;;;;;84.75;39.28;;;;;;;4.65;100.00;103383.13;4985229;28;20093;-73
2023/02/14 10:21:59;;;;;;;77.65;38.92;;;;;;;4.70;100.00;103380.66;4981590;28;20257;-73
2023/02/14 10:24:48;;;;;;;84.15;38.47;;;;;;;4.76;100.00;103376.47;4979406;28;20170;-73
2023/02/14 10:27:30;;;;;;;81.38;39.95;;;;;;;4.83;100.00;103377.50;4984839;28;20042;-73
2023/02/14 10:29:56;;;;;;;74.60;36.45;;;;;;;4.90;100.00;103379.41;4982450;28;20342;-73
2023/02/14 10:32:42;;;;;;;72.65;37.13;;;;;;;4.97;100.00;103377.84;4988709;28;20034;-73
2023/02/14 10:35:41;;;;;;;76.60;38.22;;;;;;;5.01;100.00;103371.88;4981016;28;20046;-73
2023/02/14 10:38:16;;;;;;;74.22;37.50;;;;;;;5.10;100.00;103376.41;4977045;28;20225;-73
2023/02/14 10:41:06;;;;;;;74.50;37.47;;;;;;;5.17;100.00;103376.56;4978098;28;20053;-73
2023/02/14 10:43:40;;;;;;;74.38;38.53;;;;;;;5.23;100.00;103373.22;4979983;28;20038;-73
2023/02/14 10:46:30;;;;;;;80.10;37.75;;;;;;;5.31;100.00;103363.91;4986984;28;20042;-73
2023/02/14 10:49:01;;;;;;;71.93;36.97;;;;;;;5.39;100.00;103362.34;4980844;28;20022;-73
2023/02/14 10:51:48;;;;;;;72.45;38.72;;;;;;;5.46;100.00;103359.88;4981099;28;20042;-73
2023/02/14 10:54:20;;;;;;;71.78;38.00;;;;;;;5.55;100.00;103360.06;4979105;28;20047;-73
2023/02/14 10:57:00;;;;;;;75.03;38.25;;;;;;;5.63;100.00;103362.81;4979597;28;20039;-73
2023/02/14 10:59:47;;;;;;;67.63;36.67;;;;;;;5.68;100.00;103356.00;4980910;28;20069;-73
2023/02/14 11:02:15;;;;;;;68.13;36.17;;;;;;;5.72;100.00;103358.66;4974193;28;20042;-73
2023/02/14 11:04:42;;;;;;;67.95;38.42;;;;;;;5.75;100.00;103353.53;4973797;28;20226;-73
2023/02/14 11:07:26;;;;;;;71.18;37.45;;;;;;;5.82;100.00;103357.16;4981092;28;20039;-73
2023/02/14 11:09:51;;;;;;;73.00;36.22;;;;;;;5.86;100.00;103348.53;4980954;28;20125;-73
2023/02/14 11:12:34;;;;;;;74.18;37.97;;;;;;;5.95;100.00;103347.84;4980446;28;20042;-73
2023/02/14 11:15:23;;;;;;;70.95;36.72;;;;;;;6.03;100.00;103346.28;4981085;28;20089;-73
2023/02/14 11:17:49;;;;;;;66.28;36.72;;;;;;;6.11;100.00;103339.50;4980931;28;20042;-73
2023/02/14 11:20:17;;;;;;;67.38;36.08;;;;;;;6.18;100.00;103350.00;4980296;28;20101;-73
2023/02/14 11:22:43;;;;;;;72.07;37.20;;;;;;;6.23;100.00;103340.56;4981233;28;20234;-73
2023/02/14 11:25:25;;;;;;;66.07;36.33;;;;;;;6.28;100.00;103338.94;4980688;28;20106;-73
2023/02/14 11:28:03;;;;;;;67.05;37.65;;;;;;;6.34;100.00;103332.06;4980431;28;20054;-73
2023/02/14 11:30:40;;;;;;;72.47;36.30;;;;;;;6.43;100.00;103330.50;4980271;28;20381;-73
2023/02/14 11:33:28;;;;;;;60.28;35.15;;;;;;;6.50;100.00;103335.81;4976026;28;20038;-73
2023/02/14 11:35:54;;;;;;;64.40;35.78;;;;;;;6.58;100.00;103330.72;4980246;28;20034;-73
2023/02/14 11:38:35;;;;;;;64.53;35.60;;;;;;;6.64;100.00;103322.13;4979622;28;20452;-73
2023/02/14 11:41:03;;;;;;;63.42;35.25;;;;;;;6.69;100.00;103317.88;4986283;28;20068;-73
2023/02/14 11:43:51;;;;;;;62.08;34.13;;;;;;;6.73;100.00;103322.28;4990513;28;20037;-73
2023/02/14 11:46:19;;;;;;;66.23;33.43;;;;;;;6.80;100.00;103310.22;4985510;28;20128;-73
2023/02/14 11:48:54;;;;;;;57.25;32.65;;;;;;;6.87;100.00;103301.66;4980929;28;20038;-73
2023/02/14 11:51:26;;;;;;;56.33;32.25;;;;;;;6.92;100.00;103294.78;4978848;28;20035;-73
2023/02/14 11:53:59;;;;;;;60.40;32.70;;;;;;;6.96;100.00;103287.88;4989791;28;20030;-73
2023/02/14 11:56:44;;;;;;;56.33;32.58;;;;;;;7.03;100.00;103284.50;4985295;28;20254;-73
2023/02/14 11:59:18;;;;;;;57.72;32.38;;;;;;;7.07;99.88;103284.53;4980167;28;20328;-73